SAS1TB EKCH-EKCH
Flight info
| Callsign | SAS1TB |
|---|---|
| Flight time | 0h 9m |
| Altitude | 20000 |
| Route | ERPUK |
| Aircraft | A319/M-SDE3FGHIRWY/LB1 |
Departure
| Time | 2026-04-22 19:07 |
|---|---|
| Airport | Copenhagen Kastrup Airport (EKCH) |
Arrival
| Time | 2026-04-22 19:16 |
|---|---|
| Airport | Copenhagen Kastrup Airport (EKCH) |
| Time | Latitude | Longitude | Altitude | Speed | Heading |
|---|---|---|---|---|---|
| 2026-04-22 18:58 | 56.39115 | 11.20514 | 16141 ft | 332 kts | 144° |
| 2026-04-22 18:58 | 56.37178 | 11.22798 | 16012 ft | 332 kts | 145° |
| 2026-04-22 18:58 | 56.35244 | 11.25068 | 15886 ft | 332 kts | 145° |
| 2026-04-22 18:58 | 56.33308 | 11.27342 | 15762 ft | 332 kts | 145° |
| 2026-04-22 18:59 | 56.31380 | 11.29616 | 15638 ft | 331 kts | 144° |
| 2026-04-22 18:59 | 56.29453 | 11.31896 | 15516 ft | 331 kts | 144° |
| 2026-04-22 18:59 | 56.27531 | 11.34168 | 15390 ft | 331 kts | 144° |
| 2026-04-22 18:59 | 56.25608 | 11.36440 | 15265 ft | 330 kts | 144° |
| 2026-04-22 19:00 | 56.23714 | 11.38672 | 15148 ft | 330 kts | 144° |
| 2026-04-22 19:00 | 56.21795 | 11.40933 | 15023 ft | 330 kts | 145° |
| 2026-04-22 19:00 | 56.19880 | 11.43185 | 14902 ft | 330 kts | 145° |
| 2026-04-22 19:00 | 56.17959 | 11.45441 | 14784 ft | 329 kts | 145° |
| 2026-04-22 19:01 | 56.16043 | 11.47690 | 14665 ft | 329 kts | 145° |
| 2026-04-22 19:01 | 56.14129 | 11.49936 | 14541 ft | 329 kts | 145° |
| 2026-04-22 19:01 | 56.12217 | 11.52178 | 14425 ft | 328 kts | 145° |
| 2026-04-22 19:01 | 56.10304 | 11.54413 | 14308 ft | 328 kts | 145° |
| 2026-04-22 19:02 | 56.08391 | 11.56644 | 14084 ft | 328 kts | 145° |
| 2026-04-22 19:02 | 56.06481 | 11.58869 | 13824 ft | 327 kts | 145° |
| 2026-04-22 19:02 | 56.04578 | 11.61085 | 13559 ft | 326 kts | 145° |
| 2026-04-22 19:02 | 56.02703 | 11.63264 | 13294 ft | 326 kts | 145° |
| 2026-04-22 19:03 | 56.00805 | 11.65467 | 13033 ft | 325 kts | 145° |
| 2026-04-22 19:03 | 55.98913 | 11.67664 | 12780 ft | 324 kts | 145° |
| 2026-04-22 19:03 | 55.97024 | 11.69853 | 12524 ft | 323 kts | 145° |
| 2026-04-22 19:03 | 55.95139 | 11.72037 | 12266 ft | 323 kts | 145° |
| 2026-04-22 19:04 | 55.93259 | 11.74211 | 12012 ft | 322 kts | 145° |
| 2026-04-22 19:04 | 55.91378 | 11.76382 | 11766 ft | 321 kts | 145° |
| 2026-04-22 19:04 | 55.89502 | 11.78545 | 11503 ft | 321 kts | 145° |
| 2026-04-22 19:04 | 55.87653 | 11.80677 | 11267 ft | 321 kts | 145° |
| 2026-04-22 19:05 | 55.85783 | 11.82827 | 11027 ft | 318 kts | 145° |
| 2026-04-22 19:05 | 55.83932 | 11.84952 | 10691 ft | 316 kts | 145° |
| 2026-04-22 19:05 | 55.82088 | 11.87068 | 10305 ft | 316 kts | 145° |
| 2026-04-22 19:05 | 55.80246 | 11.89184 | 9888 ft | 316 kts | 145° |
| 2026-04-22 19:06 | 55.78404 | 11.91298 | 9489 ft | 315 kts | 145° |
| 2026-04-22 19:06 | 55.76566 | 11.93404 | 9104 ft | 313 kts | 146° |
| 2026-04-22 19:06 | 55.74739 | 11.95490 | 8700 ft | 312 kts | 146° |
| 2026-04-22 19:07 | 55.71126 | 11.99616 | 7931 ft | 310 kts | 146° |
| 2026-04-22 19:07 | 55.69315 | 12.01686 | 7578 ft | 308 kts | 146° |
| 2026-04-22 19:07 | 55.67518 | 12.03735 | 7199 ft | 307 kts | 146° |
| 2026-04-22 19:07 | 55.65728 | 12.05774 | 6816 ft | 306 kts | 146° |
| 2026-04-22 19:08 | 55.63949 | 12.07796 | 6448 ft | 305 kts | 146° |
| 2026-04-22 19:08 | 55.62176 | 12.09803 | 6060 ft | 298 kts | 147° |
| 2026-04-22 19:08 | 55.60442 | 12.11759 | 5540 ft | 294 kts | 147° |
| 2026-04-22 19:08 | 55.58728 | 12.13692 | 5006 ft | 291 kts | 147° |
| 2026-04-22 19:09 | 55.57032 | 12.15606 | 4449 ft | 288 kts | 147° |
| 2026-04-22 19:09 | 55.55353 | 12.17503 | 3906 ft | 285 kts | 148° |
| 2026-04-22 19:09 | 55.53723 | 12.19340 | 3578 ft | 277 kts | 148° |
| 2026-04-22 19:09 | 55.52123 | 12.21138 | 3448 ft | 268 kts | 148° |
| 2026-04-22 19:10 | 55.50537 | 12.22915 | 3023 ft | 273 kts | 147° |
| 2026-04-22 19:10 | 55.49069 | 12.25108 | 3008 ft | 279 kts | 136° |
| 2026-04-22 19:10 | 55.47670 | 12.27498 | 3015 ft | 280 kts | 135° |
| 2026-04-22 19:10 | 55.46298 | 12.29945 | 3007 ft | 280 kts | 129° |
| 2026-04-22 19:11 | 55.45468 | 12.32912 | 2930 ft | 264 kts | 98° |
| 2026-04-22 19:11 | 55.45472 | 12.36019 | 2813 ft | 248 kts | 77° |
| 2026-04-22 19:11 | 55.45726 | 12.38964 | 2669 ft | 239 kts | 76° |
| 2026-04-22 19:11 | 55.45990 | 12.41812 | 2506 ft | 231 kts | 75° |
| 2026-04-22 19:12 | 55.46237 | 12.44516 | 2390 ft | 222 kts | 75° |
| 2026-04-22 19:12 | 55.46508 | 12.47140 | 2255 ft | 211 kts | 66° |
| 2026-04-22 19:12 | 55.47296 | 12.49083 | 2137 ft | 184 kts | 25° |
| 2026-04-22 19:12 | 55.48444 | 12.49367 | 2055 ft | 166 kts | 336° |
| 2026-04-22 19:13 | 55.49549 | 12.48935 | 2205 ft | 166 kts | 359° |
| 2026-04-22 19:13 | 55.50711 | 12.49195 | 2593 ft | 172 kts | 357° |
| 2026-04-22 19:13 | 55.51906 | 12.49421 | 2397 ft | 177 kts | 14° |
| 2026-04-22 19:13 | 55.52922 | 12.50655 | 2269 ft | 175 kts | 34° |
| 2026-04-22 19:14 | 55.53776 | 12.51980 | 2143 ft | 155 kts | 33° |
| 2026-04-22 19:14 | 55.54589 | 12.53243 | 1713 ft | 154 kts | 32° |
| 2026-04-22 19:14 | 55.55354 | 12.54418 | 1607 ft | 145 kts | 32° |
| 2026-04-22 19:14 | 55.56087 | 12.55688 | 1076 ft | 152 kts | 36° |
| 2026-04-22 19:15 | 55.56638 | 12.56521 | 566 ft | 158 kts | 34° |
| 2026-04-22 19:15 | 55.57672 | 12.58023 | 391 ft | 134 kts | 36° |
| 2026-04-22 19:15 | 55.58361 | 12.59060 | 251 ft | 127 kts | 37° |
| 2026-04-22 19:15 | 55.59026 | 12.60071 | 104 ft | 125 kts | 36° |
| 2026-04-22 19:16 | 55.59659 | 12.61030 | 19 ft | 104 kts | 39° |
| 2026-04-22 19:16 | 55.60078 | 12.61677 | 19 ft | 57 kts | 40° |
| 2026-04-22 19:16 | 55.60173 | 12.61821 | 19 ft | 0 kts | 40° |
| 2026-04-22 19:24 | 55.60179 | 12.61829 | 19 ft | 3 kts | 40° |
| 2026-04-22 19:24 | 55.60210 | 12.61877 | 18 ft | 8 kts | 42° |
| 2026-04-22 19:24 | 55.60265 | 12.61963 | 18 ft | 12 kts | 41° |
| 2026-04-22 19:25 | 55.60338 | 12.62080 | 17 ft | 17 kts | 41° |
| 2026-04-22 19:25 | 55.60437 | 12.62217 | 20 ft | 19 kts | 32° |
| 2026-04-22 19:25 | 55.60570 | 12.62320 | 20 ft | 23 kts | 16° |
| 2026-04-22 19:25 | 55.60739 | 12.62382 | 18 ft | 27 kts | 13° |
| 2026-04-22 19:26 | 55.60873 | 12.62530 | 17 ft | 23 kts | 40° |
| 2026-04-22 19:26 | 55.61003 | 12.62730 | 17 ft | 27 kts | 41° |
| 2026-04-22 19:26 | 55.61154 | 12.62965 | 19 ft | 31 kts | 41° |
| 2026-04-22 19:26 | 55.61311 | 12.63208 | 18 ft | 20 kts | 42° |
| 2026-04-22 19:27 | 55.61381 | 12.63314 | 19 ft | 14 kts | 37° |
| 2026-04-22 19:27 | 55.61462 | 12.63443 | 17 ft | 18 kts | 43° |
| 2026-04-22 19:27 | 55.61565 | 12.63600 | 17 ft | 21 kts | 40° |
| 2026-04-22 19:27 | 55.61687 | 12.63790 | 17 ft | 25 kts | 41° |
| 2026-04-22 19:28 | 55.61827 | 12.64003 | 17 ft | 23 kts | 39° |
| 2026-04-22 19:28 | 55.61903 | 12.64098 | 17 ft | 13 kts | 26° |
| 2026-04-22 19:28 | 55.61996 | 12.64176 | 17 ft | 17 kts | 26° |
| 2026-04-22 19:28 | 55.62113 | 12.64275 | 18 ft | 21 kts | 26° |
| 2026-04-22 19:29 | 55.62232 | 12.64382 | 16 ft | 14 kts | 38° |
| 2026-04-22 19:29 | 55.62275 | 12.64513 | 17 ft | 13 kts | 66° |
| 2026-04-22 19:29 | 55.62326 | 12.64658 | 17 ft | 12 kts | 34° |
| 2026-04-22 19:29 | 55.62400 | 12.64675 | 17 ft | 13 kts | 359° |
| 2026-04-22 19:30 | 55.62464 | 12.64666 | 19 ft | 15 kts | 351° |
| 2026-04-22 19:30 | 55.62563 | 12.64653 | 17 ft | 1 kts | 2° |
| 2026-04-22 19:30 | 55.62582 | 12.64653 | 19 ft | 5 kts | 1° |
| 2026-04-22 19:30 | 55.62628 | 12.64664 | 17 ft | 9 kts | 11° |
| 2026-04-22 19:31 | 55.62674 | 12.64681 | 17 ft | 3 kts | 12° |
| 2026-04-22 19:31 | 55.62686 | 12.64656 | 18 ft | 4 kts | 295° |
| 2026-04-22 19:31 | 55.62696 | 12.64583 | 17 ft | 5 kts | 282° |
| 2026-04-22 19:31 | 55.62697 | 12.64574 | 17 ft | 0 kts | 282° |